sensor_id;sensor_type;location;lat;lon;timestamp;temperature;humidity
6756;DHT22;3415;51.148;7.014;2023-12-20T00:00:28;7.70;1.00
6756;DHT22;3415;51.148;7.014;2023-12-20T00:02:55;7.70;1.00
6756;DHT22;3415;51.148;7.014;2023-12-20T00:05:22;7.60;1.00
6756;DHT22;3415;51.148;7.014;2023-12-20T00:07:49;7.60;1.00
6756;DHT22;3415;51.148;7.014;2023-12-20T00:10:17;7.60;1.00
6756;DHT22;3415;51.148;7.014;2023-12-20T00:12:44;7.50;1.00
6756;DHT22;3415;51.148;7.014;2023-12-20T00:15:11;7.30;1.00
6756;DHT22;3415;51.148;7.014;2023-12-20T00:17:37;7.30;1.00
6756;DHT22;3415;51.148;7.014;2023-12-20T00:20:05;7.30;1.00
6756;DHT22;3415;51.148;7.014;2023-12-20T00:22:32;7.30;1.00
6756;DHT22;3415;51.148;7.014;2023-12-20T00:24:59;7.20;1.00
6756;DHT22;3415;51.148;7.014;2023-12-20T00:27:27;7.20;1.00
6756;DHT22;3415;51.148;7.014;2023-12-20T00:29:54;7.20;99.90
6756;DHT22;3415;51.148;7.014;2023-12-20T00:32:20;7.20;99.90
6756;DHT22;3415;51.148;7.014;2023-12-20T00:34:47;7.10;99.90
6756;DHT22;3415;51.148;7.014;2023-12-20T00:37:14;7.00;99.90
6756;DHT22;3415;51.148;7.014;2023-12-20T00:39:42;7.10;99.90
6756;DHT22;3415;51.148;7.014;2023-12-20T00:42:09;7.10;99.90
6756;DHT22;3415;51.148;7.014;2023-12-20T00:44:37;7.10;99.90
6756;DHT22;3415;51.148;7.014;2023-12-20T00:47:04;7.20;99.90
6756;DHT22;3415;51.148;7.014;2023-12-20T00:49:31;7.10;99.90
6756;DHT22;3415;51.148;7.014;2023-12-20T00:51:57;7.10;99.90
6756;DHT22;3415;51.148;7.014;2023-12-20T00:54:24;7.10;99.90
6756;DHT22;3415;51.148;7.014;2023-12-20T00:56:51;7.00;99.90
6756;DHT22;3415;51.148;7.014;2023-12-20T00:59:18;7.00;99.90
6756;DHT22;3415;51.148;7.014;2023-12-20T08:07:04;6.20;1.00
6756;DHT22;3415;51.148;7.014;2023-12-20T08:09:31;6.00;1.00
6756;DHT22;3415;51.148;7.014;2023-12-20T08:11:59;6.00;1.00
6756;DHT22;3415;51.148;7.014;2023-12-20T08:14:26;6.00;1.00
6756;DHT22;3415;51.148;7.014;2023-12-20T08:16:53;6.00;1.00
6756;DHT22;3415;51.148;7.014;2023-12-20T08:19:20;6.00;1.00
6756;DHT22;3415;51.148;7.014;2023-12-20T08:21:46;5.90;1.00
6756;DHT22;3415;51.148;7.014;2023-12-20T08:24:15;6.00;1.00
6756;DHT22;3415;51.148;7.014;2023-12-20T08:26:42;6.00;1.00
6756;DHT22;3415;51.148;7.014;2023-12-20T08:29:08;6.00;1.00
6756;DHT22;3415;51.148;7.014;2023-12-20T08:31:35;6.00;1.00
6756;DHT22;3415;51.148;7.014;2023-12-20T08:34:02;6.10;1.00
6756;DHT22;3415;51.148;7.014;2023-12-20T08:36:29;6.00;1.00
6756;DHT22;3415;51.148;7.014;2023-12-20T08:38:55;6.00;1.00
6756;DHT22;3415;51.148;7.014;2023-12-20T08:41:23;6.10;1.00
6756;DHT22;3415;51.148;7.014;2023-12-20T08:43:50;6.00;1.00
6756;DHT22;3415;51.148;7.014;2023-12-20T08:46:17;6.00;1.00
6756;DHT22;3415;51.148;7.014;2023-12-20T08:48:44;6.10;1.00
6756;DHT22;3415;51.148;7.014;2023-12-20T08:51:11;6.10;1.00
6756;DHT22;3415;51.148;7.014;2023-12-20T08:53:37;6.00;1.00
6756;DHT22;3415;51.148;7.014;2023-12-20T08:56:04;6.00;1.00
6756;DHT22;3415;51.148;7.014;2023-12-20T08:58:33;6.00;1.00
6756;DHT22;3415;51.148;7.014;2023-12-20T09:01:01;6.00;1.00
6756;DHT22;3415;51.148;7.014;2023-12-20T09:03:28;6.00;1.00
6756;DHT22;3415;51.148;7.014;2023-12-20T09:08:22;6.00;1.00
6756;DHT22;3415;51.148;7.014;2023-12-20T09:10:49;6.00;1.00
6756;DHT22;3415;51.148;7.014;2023-12-20T09:13:16;6.10;1.00
6756;DHT22;3415;51.148;7.014;2023-12-20T09:15:44;6.00;1.00
6756;DHT22;3415;51.148;7.014;2023-12-20T09:18:11;6.10;1.00
6756;DHT22;3415;51.148;7.014;2023-12-20T09:20:38;6.00;99.90
6756;DHT22;3415;51.148;7.014;2023-12-20T09:23:05;6.10;99.90
6756;DHT22;3415;51.148;7.014;2023-12-20T09:25:31;6.10;99.90
6756;DHT22;3415;51.148;7.014;2023-12-20T09:27:58;6.10;99.90
6756;DHT22;3415;51.148;7.014;2023-12-20T09:30:25;6.10;99.90
6756;DHT22;3415;51.148;7.014;2023-12-20T09:32:53;6.00;99.90
6756;DHT22;3415;51.148;7.014;2023-12-20T09:35:20;6.10;99.90
6756;DHT22;3415;51.148;7.014;2023-12-20T09:37:47;6.10;99.90
6756;DHT22;3415;51.148;7.014;2023-12-20T09:40:14;6.10;99.90
6756;DHT22;3415;51.148;7.014;2023-12-20T09:42:47;6.10;99.90
6756;DHT22;3415;51.148;7.014;2023-12-20T09:45:16;6.10;99.90
6756;DHT22;3415;51.148;7.014;2023-12-20T09:47:46;6.10;99.90
6756;DHT22;3415;51.148;7.014;2023-12-20T09:50:14;6.10;99.90
6756;DHT22;3415;51.148;7.014;2023-12-20T09:52:42;6.10;99.90
6756;DHT22;3415;51.148;7.014;2023-12-20T09:57:37;6.20;99.90
6756;DHT22;3415;51.148;7.014;2023-12-20T10:00:07;6.10;99.90
6756;DHT22;3415;51.148;7.014;2023-12-20T10:02:34;6.10;99.90
6756;DHT22;3415;51.148;7.014;2023-12-20T10:05:06;6.10;99.90
6756;DHT22;3415;51.148;7.014;2023-12-20T10:07:36;6.20;99.90
6756;DHT22;3415;51.148;7.014;2023-12-20T10:10:05;6.20;99.90
6756;DHT22;3415;51.148;7.014;2023-12-20T10:12:33;6.20;99.90
6756;DHT22;3415;51.148;7.014;2023-12-20T10:15:00;6.20;99.90
6756;DHT22;3415;51.148;7.014;2023-12-20T10:17:27;6.20;99.90
6756;DHT22;3415;51.148;7.014;2023-12-20T10:19:55;6.20;99.90
6756;DHT22;3415;51.148;7.014;2023-12-20T10:22:22;6.20;99.90
6756;DHT22;3415;51.148;7.014;2023-12-20T10:24:50;6.20;99.90
6756;DHT22;3415;51.148;7.014;2023-12-20T10:27:18;6.20;99.90
6756;DHT22;3415;51.148;7.014;2023-12-20T10:32:23;6.20;99.90
6756;DHT22;3415;51.148;7.014;2023-12-20T10:34:50;6.20;99.90
6756;DHT22;3415;51.148;7.014;2023-12-20T10:37:17;6.30;99.90
6756;DHT22;3415;51.148;7.014;2023-12-20T10:39:44;6.30;99.90
6756;DHT22;3415;51.148;7.014;2023-12-20T10:42:13;6.30;99.90
6756;DHT22;3415;51.148;7.014;2023-12-20T10:44:40;6.30;99.90
6756;DHT22;3415;51.148;7.014;2023-12-20T10:47:09;6.30;99.90
6756;DHT22;3415;51.148;7.014;2023-12-20T10:49:39;6.30;99.90
6756;DHT22;3415;51.148;7.014;2023-12-20T10:52:09;6.30;99.90
6756;DHT22;3415;51.148;7.014;2023-12-20T10:54:35;6.40;99.90
6756;DHT22;3415;51.148;7.014;2023-12-20T10:57:04;6.40;99.90
6756;DHT22;3415;51.148;7.014;2023-12-20T10:59:33;6.40;99.90
6756;DHT22;3415;51.148;7.014;2023-12-20T11:02:03;6.40;99.90
6756;DHT22;3415;51.148;7.014;2023-12-20T11:04:36;6.40;99.90
6756;DHT22;3415;51.148;7.014;2023-12-20T11:07:12;6.40;99.90
6756;DHT22;3415;51.148;7.014;2023-12-20T11:09:45;6.40;99.90
6756;DHT22;3415;51.148;7.014;2023-12-20T11:12:18;6.40;99.90
6756;DHT22;3415;51.148;7.014;2023-12-20T11:14:49;6.40;99.90
6756;DHT22;3415;51.148;7.014;2023-12-20T11:17:17;6.40;99.90
6756;DHT22;3415;51.148;7.014;2023-12-20T11:20:05;6.40;99.90
6756;DHT22;3415;51.148;7.014;2023-12-20T11:22:32;6.60;99.90
6756;DHT22;3415;51.148;7.014;2023-12-20T11:25:04;6.40;99.90
6756;DHT22;3415;51.148;7.014;2023-12-20T11:27:33;6.40;99.90
6756;DHT22;3415;51.148;7.014;2023-12-20T11:30:03;6.40;99.90
6756;DHT22;3415;51.148;7.014;2023-12-20T11:32:34;6.40;99.90
6756;DHT22;3415;51.148;7.014;2023-12-20T11:35:17;6.40;99.90
6756;DHT22;3415;51.148;7.014;2023-12-20T11:37:45;6.40;99.90
6756;DHT22;3415;51.148;7.014;2023-12-20T11:40:14;6.40;99.90
6756;DHT22;3415;51.148;7.014;2023-12-20T11:42:43;6.40;99.90
6756;DHT22;3415;51.148;7.014;2023-12-20T11:45:14;6.40;99.90
6756;DHT22;3415;51.148;7.014;2023-12-20T11:47:42;6.40;99.90
6756;DHT22;3415;51.148;7.014;2023-12-20T11:50:09;6.40;99.90
6756;DHT22;3415;51.148;7.014;2023-12-20T11:52:36;6.40;99.90
6756;DHT22;3415;51.148;7.014;2023-12-20T11:55:04;6.40;99.90
6756;DHT22;3415;51.148;7.014;2023-12-20T11:57:31;6.40;99.90
6756;DHT22;3415;51.148;7.014;2023-12-20T11:59:57;6.40;99.90
6756;DHT22;3415;51.148;7.014;2023-12-20T12:02:26;6.40;99.90
6756;DHT22;3415;51.148;7.014;2023-12-20T12:04:52;6.50;99.90
6756;DHT22;3415;51.148;7.014;2023-12-20T12:07:21;6.40;99.90
6756;DHT22;3415;51.148;7.014;2023-12-20T12:09:48;6.40;99.90
6756;DHT22;3415;51.148;7.014;2023-12-20T12:12:15;6.40;99.90
6756;DHT22;3415;51.148;7.014;2023-12-20T12:14:42;6.40;99.90
6756;DHT22;3415;51.148;7.014;2023-12-20T12:17:12;6.40;99.90
6756;DHT22;3415;51.148;7.014;2023-12-20T12:19:41;6.50;99.90
6756;DHT22;3415;51.148;7.014;2023-12-20T12:22:09;6.50;99.90
6756;DHT22;3415;51.148;7.014;2023-12-20T12:24:39;6.60;99.90
6756;DHT22;3415;51.148;7.014;2023-12-20T12:27:06;6.60;99.90
6756;DHT22;3415;51.148;7.014;2023-12-20T12:29:33;6.60;99.90
6756;DHT22;3415;51.148;7.014;2023-12-20T12:32:00;6.60;99.90
6756;DHT22;3415;51.148;7.014;2023-12-20T12:34:27;6.60;99.90
6756;DHT22;3415;51.148;7.014;2023-12-20T12:36:55;6.60;99.90
6756;DHT22;3415;51.148;7.014;2023-12-20T12:39:23;6.60;99.90
6756;DHT22;3415;51.148;7.014;2023-12-20T12:41:51;6.60;99.90
6756;DHT22;3415;51.148;7.014;2023-12-20T12:44:18;6.60;99.90
6756;DHT22;3415;51.148;7.014;2023-12-20T12:46:46;6.60;99.90
6756;DHT22;3415;51.148;7.014;2023-12-20T12:49:15;6.60;99.90
6756;DHT22;3415;51.148;7.014;2023-12-20T12:51:42;6.60;99.90
6756;DHT22;3415;51.148;7.014;2023-12-20T12:54:11;6.70;99.90
6756;DHT22;3415;51.148;7.014;2023-12-20T12:56:39;6.60;99.90
6756;DHT22;3415;51.148;7.014;2023-12-20T12:59:06;6.70;99.90
6756;DHT22;3415;51.148;7.014;2023-12-20T13:01:32;6.70;99.90
6756;DHT22;3415;51.148;7.014;2023-12-20T13:03:59;6.70;99.90
6756;DHT22;3415;51.148;7.014;2023-12-20T13:06:27;6.90;99.90
6756;DHT22;3415;51.148;7.014;2023-12-20T13:11:22;6.70;99.90
6756;DHT22;3415;51.148;7.014;2023-12-20T13:13:49;6.70;99.90
6756;DHT22;3415;51.148;7.014;2023-12-20T13:18:43;6.60;99.90
6756;DHT22;3415;51.148;7.014;2023-12-20T13:21:10;6.60;99.90
6756;DHT22;3415;51.148;7.014;2023-12-20T13:23:37;6.60;99.90
6756;DHT22;3415;51.148;7.014;2023-12-20T13:26:03;6.70;99.90
6756;DHT22;3415;51.148;7.014;2023-12-20T13:28:32;6.70;99.90
6756;DHT22;3415;51.148;7.014;2023-12-20T13:30:59;6.50;99.90
6756;DHT22;3415;51.148;7.014;2023-12-20T13:33:26;6.50;99.90
6756;DHT22;3415;51.148;7.014;2023-12-20T13:35:53;6.50;99.90
6756;DHT22;3415;51.148;7.014;2023-12-20T13:38:19;6.60;99.90
6756;DHT22;3415;51.148;7.014;2023-12-20T13:40:46;6.60;99.90
6756;DHT22;3415;51.148;7.014;2023-12-20T13:43:13;6.60;99.90
6756;DHT22;3415;51.148;7.014;2023-12-20T13:45:43;6.90;99.90
6756;DHT22;3415;51.148;7.014;2023-12-20T13:48:10;6.60;99.90
6756;DHT22;3415;51.148;7.014;2023-12-20T13:50:37;6.70;99.90
6756;DHT22;3415;51.148;7.014;2023-12-20T13:53:04;6.60;99.90
6756;DHT22;3415;51.148;7.014;2023-12-20T13:55:30;6.60;99.90
6756;DHT22;3415;51.148;7.014;2023-12-20T13:57:57;6.70;99.90
6756;DHT22;3415;51.148;7.014;2023-12-20T14:00:24;6.70;99.90
6756;DHT22;3415;51.148;7.014;2023-12-20T14:02:52;6.70;99.90
6756;DHT22;3415;51.148;7.014;2023-12-20T14:05:20;6.70;99.90
6756;DHT22;3415;51.148;7.014;2023-12-20T14:10:16;6.60;99.90
6756;DHT22;3415;51.148;7.014;2023-12-20T14:12:43;6.60;1.00
6756;DHT22;3415;51.148;7.014;2023-12-20T14:15:10;6.60;1.00
6756;DHT22;3415;51.148;7.014;2023-12-20T14:17:38;6.50;1.00
6756;DHT22;3415;51.148;7.014;2023-12-20T14:20:07;6.60;1.00
6756;DHT22;3415;51.148;7.014;2023-12-20T14:22:35;6.60;1.00
6756;DHT22;3415;51.148;7.014;2023-12-20T14:25:05;6.60;1.00
6756;DHT22;3415;51.148;7.014;2023-12-20T14:27:32;6.60;1.00
6756;DHT22;3415;51.148;7.014;2023-12-20T14:29:59;6.70;1.00
6756;DHT22;3415;51.148;7.014;2023-12-20T14:32:26;6.70;1.00
6756;DHT22;3415;51.148;7.014;2023-12-20T14:34:53;6.70;1.00
6756;DHT22;3415;51.148;7.014;2023-12-20T14:37:21;6.70;1.00
6756;DHT22;3415;51.148;7.014;2023-12-20T14:39:48;6.70;1.00
6756;DHT22;3415;51.148;7.014;2023-12-20T14:42:15;6.70;1.00
6756;DHT22;3415;51.148;7.014;2023-12-20T14:44:42;6.70;1.00
6756;DHT22;3415;51.148;7.014;2023-12-20T14:47:09;6.80;1.00
6756;DHT22;3415;51.148;7.014;2023-12-20T14:49:35;6.80;1.00
6756;DHT22;3415;51.148;7.014;2023-12-20T14:52:03;6.80;99.90
6756;DHT22;3415;51.148;7.014;2023-12-20T14:54:31;6.80;99.90
6756;DHT22;3415;51.148;7.014;2023-12-20T14:56:59;6.90;99.90
6756;DHT22;3415;51.148;7.014;2023-12-20T14:59:26;6.90;99.90
6756;DHT22;3415;51.148;7.014;2023-12-20T15:01:53;7.00;99.90
6756;DHT22;3415;51.148;7.014;2023-12-20T15:04:20;6.80;99.90
6756;DHT22;3415;51.148;7.014;2023-12-20T15:06:53;6.90;99.90
6756;DHT22;3415;51.148;7.014;2023-12-20T15:09:20;6.90;99.90
6756;DHT22;3415;51.148;7.014;2023-12-20T15:11:48;6.90;99.90
6756;DHT22;3415;51.148;7.014;2023-12-20T15:14:15;6.90;99.90
6756;DHT22;3415;51.148;7.014;2023-12-20T15:16:45;6.90;99.90
6756;DHT22;3415;51.148;7.014;2023-12-20T15:19:12;6.90;99.90
6756;DHT22;3415;51.148;7.014;2023-12-20T15:21:39;6.90;99.90
6756;DHT22;3415;51.148;7.014;2023-12-20T15:24:08;7.00;99.90
6756;DHT22;3415;51.148;7.014;2023-12-20T15:29:08;7.00;99.90
6756;DHT22;3415;51.148;7.014;2023-12-20T15:31:41;7.00;99.90
6756;DHT22;3415;51.148;7.014;2023-12-20T15:36:35;6.90;99.90
6756;DHT22;3415;51.148;7.014;2023-12-20T15:39:02;7.00;99.90
6756;DHT22;3415;51.148;7.014;2023-12-20T15:41:29;7.00;99.90
6756;DHT22;3415;51.148;7.014;2023-12-20T15:46:25;7.00;99.90
6756;DHT22;3415;51.148;7.014;2023-12-20T15:48:52;7.00;99.90
6756;DHT22;3415;51.148;7.014;2023-12-20T15:51:20;7.10;99.90
6756;DHT22;3415;51.148;7.014;2023-12-20T15:53:47;7.10;99.90
6756;DHT22;3415;51.148;7.014;2023-12-20T15:56:15;7.10;99.90
6756;DHT22;3415;51.148;7.014;2023-12-20T15:58:42;7.00;99.90
6756;DHT22;3415;51.148;7.014;2023-12-20T16:01:08;7.10;99.90
6756;DHT22;3415;51.148;7.014;2023-12-20T16:03:36;7.10;99.90
6756;DHT22;3415;51.148;7.014;2023-12-20T16:06:04;7.20;99.90
6756;DHT22;3415;51.148;7.014;2023-12-20T16:08:31;7.10;99.90
6756;DHT22;3415;51.148;7.014;2023-12-20T16:10:58;7.10;99.90
6756;DHT22;3415;51.148;7.014;2023-12-20T16:15:52;7.10;99.90
6756;DHT22;3415;51.148;7.014;2023-12-20T16:18:19;7.10;99.90
6756;DHT22;3415;51.148;7.014;2023-12-20T16:20:47;7.10;99.90
6756;DHT22;3415;51.148;7.014;2023-12-20T16:23:14;7.10;99.90
6756;DHT22;3415;51.148;7.014;2023-12-20T16:28:08;7.20;99.90
6756;DHT22;3415;51.148;7.014;2023-12-20T16:30:35;7.10;99.90
6756;DHT22;3415;51.148;7.014;2023-12-20T16:33:02;7.10;99.90
6756;DHT22;3415;51.148;7.014;2023-12-20T16:35:29;7.10;99.90
6756;DHT22;3415;51.148;7.014;2023-12-20T16:37:57;7.10;99.90
6756;DHT22;3415;51.148;7.014;2023-12-20T16:40:24;7.10;99.90
6756;DHT22;3415;51.148;7.014;2023-12-20T16:42:50;7.10;99.90
6756;DHT22;3415;51.148;7.014;2023-12-20T16:45:18;7.10;99.90
6756;DHT22;3415;51.148;7.014;2023-12-20T16:47:45;7.20;99.90
6756;DHT22;3415;51.148;7.014;2023-12-20T16:50:12;7.20;99.90
6756;DHT22;3415;51.148;7.014;2023-12-20T16:52:39;7.20;99.90
6756;DHT22;3415;51.148;7.014;2023-12-20T16:55:09;7.20;99.90
6756;DHT22;3415;51.148;7.014;2023-12-20T16:57:36;7.20;99.90
6756;DHT22;3415;51.148;7.014;2023-12-20T17:00:04;7.10;99.90
6756;DHT22;3415;51.148;7.014;2023-12-20T17:02:32;7.20;99.90
6756;DHT22;3415;51.148;7.014;2023-12-20T17:04:59;7.20;99.90
6756;DHT22;3415;51.148;7.014;2023-12-20T17:07:25;7.20;99.90
6756;DHT22;3415;51.148;7.014;2023-12-20T17:09:53;7.20;99.90
6756;DHT22;3415;51.148;7.014;2023-12-20T17:12:20;7.30;99.90
6756;DHT22;3415;51.148;7.014;2023-12-20T17:14:47;7.20;99.90
6756;DHT22;3415;51.148;7.014;2023-12-20T17:17:13;7.20;99.90
6756;DHT22;3415;51.148;7.014;2023-12-20T17:19:40;7.20;99.90
6756;DHT22;3415;51.148;7.014;2023-12-20T17:22:07;7.20;99.90
6756;DHT22;3415;51.148;7.014;2023-12-20T17:27:02;7.30;99.90
6756;DHT22;3415;51.148;7.014;2023-12-20T17:29:31;7.30;99.90
6756;DHT22;3415;51.148;7.014;2023-12-20T17:31:58;7.30;99.90
6756;DHT22;3415;51.148;7.014;2023-12-20T17:36:52;7.30;99.90
6756;DHT22;3415;51.148;7.014;2023-12-20T17:39:19;7.30;99.90
6756;DHT22;3415;51.148;7.014;2023-12-20T17:41:45;7.30;99.90
6756;DHT22;3415;51.148;7.014;2023-12-20T17:44:12;7.30;99.90
6756;DHT22;3415;51.148;7.014;2023-12-20T17:46:42;7.30;99.90
6756;DHT22;3415;51.148;7.014;2023-12-20T17:49:09;7.30;99.90
6756;DHT22;3415;51.148;7.014;2023-12-20T17:51:35;7.40;99.90
6756;DHT22;3415;51.148;7.014;2023-12-20T17:54:02;7.40;99.90
6756;DHT22;3415;51.148;7.014;2023-12-20T17:56:30;7.40;99.90
6756;DHT22;3415;51.148;7.014;2023-12-20T17:58:57;7.40;99.90
6756;DHT22;3415;51.148;7.014;2023-12-20T18:01:24;7.40;99.90
6756;DHT22;3415;51.148;7.014;2023-12-20T18:03:52;7.40;99.90
6756;DHT22;3415;51.148;7.014;2023-12-20T18:06:18;7.50;99.90
6756;DHT22;3415;51.148;7.014;2023-12-20T18:08:45;7.40;99.90
6756;DHT22;3415;51.148;7.014;2023-12-20T18:11:12;7.40;99.90
6756;DHT22;3415;51.148;7.014;2023-12-20T18:13:39;7.40;99.90
6756;DHT22;3415;51.148;7.014;2023-12-20T18:16:06;7.40;99.90
6756;DHT22;3415;51.148;7.014;2023-12-20T18:18:35;7.50;99.90
6756;DHT22;3415;51.148;7.014;2023-12-20T18:21:04;7.40;99.90
6756;DHT22;3415;51.148;7.014;2023-12-20T18:23:30;7.50;99.90
6756;DHT22;3415;51.148;7.014;2023-12-20T18:25:57;7.50;99.90
6756;DHT22;3415;51.148;7.014;2023-12-20T18:28:24;7.50;99.90
6756;DHT22;3415;51.148;7.014;2023-12-20T18:30:51;7.50;99.90
6756;DHT22;3415;51.148;7.014;2023-12-20T18:33:18;7.60;99.90
6756;DHT22;3415;51.148;7.014;2023-12-20T18:35:45;7.60;99.90
6756;DHT22;3415;51.148;7.014;2023-12-20T18:38:13;7.80;99.90
6756;DHT22;3415;51.148;7.014;2023-12-20T18:40:40;7.60;99.90
6756;DHT22;3415;51.148;7.014;2023-12-20T18:43:13;7.70;99.90
6756;DHT22;3415;51.148;7.014;2023-12-20T18:45:40;7.70;99.90
6756;DHT22;3415;51.148;7.014;2023-12-20T18:48:08;7.80;99.90
6756;DHT22;3415;51.148;7.014;2023-12-20T18:50:35;7.70;99.90
6756;DHT22;3415;51.148;7.014;2023-12-20T18:53:03;7.70;99.90
6756;DHT22;3415;51.148;7.014;2023-12-20T18:55:31;7.80;99.90
6756;DHT22;3415;51.148;7.014;2023-12-20T19:00:25;7.70;99.90
6756;DHT22;3415;51.148;7.014;2023-12-20T19:02:52;7.80;99.90
6756;DHT22;3415;51.148;7.014;2023-12-20T19:05:20;7.80;99.90
6756;DHT22;3415;51.148;7.014;2023-12-20T19:07:48;7.80;99.90
6756;DHT22;3415;51.148;7.014;2023-12-20T19:12:47;7.80;99.90
6756;DHT22;3415;51.148;7.014;2023-12-20T19:15:16;7.90;99.90
6756;DHT22;3415;51.148;7.014;2023-12-20T19:17:44;7.90;99.90
6756;DHT22;3415;51.148;7.014;2023-12-20T19:20:12;7.90;99.90
6756;DHT22;3415;51.148;7.014;2023-12-20T19:25:06;7.90;99.90
6756;DHT22;3415;51.148;7.014;2023-12-20T19:27:34;7.80;99.90
6756;DHT22;3415;51.148;7.014;2023-12-20T19:30:04;7.80;99.90
6756;DHT22;3415;51.148;7.014;2023-12-20T19:32:31;7.90;99.90
6756;DHT22;3415;51.148;7.014;2023-12-20T19:34:58;8.00;99.90
6756;DHT22;3415;51.148;7.014;2023-12-20T19:37:25;8.00;99.90
6756;DHT22;3415;51.148;7.014;2023-12-20T19:39:53;8.00;99.90
6756;DHT22;3415;51.148;7.014;2023-12-20T19:42:19;8.00;99.90
6756;DHT22;3415;51.148;7.014;2023-12-20T19:44:46;8.00;99.90
6756;DHT22;3415;51.148;7.014;2023-12-20T19:47:14;8.00;99.90
6756;DHT22;3415;51.148;7.014;2023-12-20T19:49:41;8.00;99.90
6756;DHT22;3415;51.148;7.014;2023-12-20T19:52:08;8.00;99.90
6756;DHT22;3415;51.148;7.014;2023-12-20T19:54:34;8.00;99.90
6756;DHT22;3415;51.148;7.014;2023-12-20T19:57:01;8.00;99.90
6756;DHT22;3415;51.148;7.014;2023-12-20T19:59:28;8.10;99.90
6756;DHT22;3415;51.148;7.014;2023-12-20T20:01:55;8.00;99.90
6756;DHT22;3415;51.148;7.014;2023-12-20T20:04:23;8.10;99.90
6756;DHT22;3415;51.148;7.014;2023-12-20T20:06:50;8.10;99.90
6756;DHT22;3415;51.148;7.014;2023-12-20T20:09:17;8.10;99.90
6756;DHT22;3415;51.148;7.014;2023-12-20T20:11:44;8.10;99.90
6756;DHT22;3415;51.148;7.014;2023-12-20T20:14:11;8.10;99.90
6756;DHT22;3415;51.148;7.014;2023-12-20T20:16:38;8.10;99.90
6756;DHT22;3415;51.148;7.014;2023-12-20T20:19:05;8.10;99.90
6756;DHT22;3415;51.148;7.014;2023-12-20T20:21:33;8.10;99.90
6756;DHT22;3415;51.148;7.014;2023-12-20T20:24:00;8.10;99.90
6756;DHT22;3415;51.148;7.014;2023-12-20T20:26:27;8.10;99.90
6756;DHT22;3415;51.148;7.014;2023-12-20T20:31:21;8.10;99.90
6756;DHT22;3415;51.148;7.014;2023-12-20T20:33:48;8.10;99.90
6756;DHT22;3415;51.148;7.014;2023-12-20T20:36:14;8.20;99.90
6756;DHT22;3415;51.148;7.014;2023-12-20T20:38:42;8.10;99.90
6756;DHT22;3415;51.148;7.014;2023-12-20T20:41:09;8.00;99.90
6756;DHT22;3415;51.148;7.014;2023-12-20T20:43:36;8.10;99.90
6756;DHT22;3415;51.148;7.014;2023-12-20T20:46:03;8.10;99.90
6756;DHT22;3415;51.148;7.014;2023-12-20T20:48:30;8.10;99.90
6756;DHT22;3415;51.148;7.014;2023-12-20T20:50:57;8.10;99.90
6756;DHT22;3415;51.148;7.014;2023-12-20T20:53:25;8.10;99.90
6756;DHT22;3415;51.148;7.014;2023-12-20T20:55:53;8.00;99.90
6756;DHT22;3415;51.148;7.014;2023-12-20T20:58:19;8.00;99.90
6756;DHT22;3415;51.148;7.014;2023-12-20T21:00:46;8.00;99.90
6756;DHT22;3415;51.148;7.014;2023-12-20T21:03:13;8.00;99.90
6756;DHT22;3415;51.148;7.014;2023-12-20T21:05:40;8.00;99.90
6756;DHT22;3415;51.148;7.014;2023-12-20T21:08:07;8.00;99.90
6756;DHT22;3415;51.148;7.014;2023-12-20T21:10:34;8.00;99.90
6756;DHT22;3415;51.148;7.014;2023-12-20T21:13:02;8.00;99.90
6756;DHT22;3415;51.148;7.014;2023-12-20T21:15:28;8.00;99.90
6756;DHT22;3415;51.148;7.014;2023-12-20T21:17:55;7.90;99.90
6756;DHT22;3415;51.148;7.014;2023-12-20T21:20:22;7.90;99.90
6756;DHT22;3415;51.148;7.014;2023-12-20T21:22:49;7.90;1.00
6756;DHT22;3415;51.148;7.014;2023-12-20T21:25:16;7.90;1.00
6756;DHT22;3415;51.148;7.014;2023-12-20T21:27:43;7.90;1.00
6756;DHT22;3415;51.148;7.014;2023-12-20T21:30:12;7.90;1.00
6756;DHT22;3415;51.148;7.014;2023-12-20T21:32:40;7.80;1.00
6756;DHT22;3415;51.148;7.014;2023-12-20T21:35:08;7.80;1.00
6756;DHT22;3415;51.148;7.014;2023-12-20T21:37:35;7.90;1.00
6756;DHT22;3415;51.148;7.014;2023-12-20T21:40:01;7.90;1.00
6756;DHT22;3415;51.148;7.014;2023-12-20T21:42:28;7.80;1.00
6756;DHT22;3415;51.148;7.014;2023-12-20T21:44:55;7.90;1.00
6756;DHT22;3415;51.148;7.014;2023-12-20T21:47:23;7.80;1.00
6756;DHT22;3415;51.148;7.014;2023-12-20T21:49:50;7.80;1.00
6756;DHT22;3415;51.148;7.014;2023-12-20T21:52:17;7.80;9.30
6756;DHT22;3415;51.148;7.014;2023-12-20T21:54:44;8.00;24.10
6756;DHT22;3415;51.148;7.014;2023-12-20T21:57:11;7.80;42.50
6756;DHT22;3415;51.148;7.014;2023-12-20T21:59:38;7.80;64.00
6756;DHT22;3415;51.148;7.014;2023-12-20T22:02:05;7.80;77.00
6756;DHT22;3415;51.148;7.014;2023-12-20T22:04:34;7.80;99.90
6756;DHT22;3415;51.148;7.014;2023-12-20T22:07:01;7.80;99.90
6756;DHT22;3415;51.148;7.014;2023-12-20T22:09:28;7.80;99.90
6756;DHT22;3415;51.148;7.014;2023-12-20T22:11:55;7.80;99.90
6756;DHT22;3415;51.148;7.014;2023-12-20T22:14:22;7.80;99.90
6756;DHT22;3415;51.148;7.014;2023-12-20T22:16:51;7.80;99.90
6756;DHT22;3415;51.148;7.014;2023-12-20T22:19:17;7.80;99.90
6756;DHT22;3415;51.148;7.014;2023-12-20T22:21:45;7.80;99.90
6756;DHT22;3415;51.148;7.014;2023-12-20T22:24:12;7.80;99.90
6756;DHT22;3415;51.148;7.014;2023-12-20T22:26:39;7.90;99.90
6756;DHT22;3415;51.148;7.014;2023-12-20T22:29:06;7.80;99.90
6756;DHT22;3415;51.148;7.014;2023-12-20T22:31:32;7.80;99.90
6756;DHT22;3415;51.148;7.014;2023-12-20T22:33:59;7.80;99.90
6756;DHT22;3415;51.148;7.014;2023-12-20T22:36:25;7.90;99.90
6756;DHT22;3415;51.148;7.014;2023-12-20T22:38:53;7.90;99.90
6756;DHT22;3415;51.148;7.014;2023-12-20T22:41:22;7.90;99.90
6756;DHT22;3415;51.148;7.014;2023-12-20T22:43:49;7.90;99.90
6756;DHT22;3415;51.148;7.014;2023-12-20T22:46:16;7.90;99.90
6756;DHT22;3415;51.148;7.014;2023-12-20T22:51:09;7.90;99.90
6756;DHT22;3415;51.148;7.014;2023-12-20T22:56:05;7.90;99.90
6756;DHT22;3415;51.148;7.014;2023-12-20T22:58:32;7.90;99.90
6756;DHT22;3415;51.148;7.014;2023-12-20T23:00:59;7.90;99.90
6756;DHT22;3415;51.148;7.014;2023-12-20T23:03:25;8.00;99.90
